Catawissa, PA

4:26 AM EDT on October 21, 2019 (GMT -0400)
Telno Weather Station | | Change Station

Elev 567 ft 40.98 °N, 76.50 °W | Updated 9 seconds ago

Overcast
Overcast
48.9 °F
Feels Like 49 °F
N
0
Wind Variable Wind from East
Gusts 1.3 mph

Today
High -- | Low -- °F
--% Chance of Precip.
Yesterday
High -- | Low -- °F
Precip. -- in
Pressure 30.05 in
Visibility 1.5 miles
Clouds Overcast 1700 ft
Windchill 49 °F
Dew Point 49 °F
Humidity 99%
Rainfall 0.00 in
Snow Depth Not available.
7:23 AM 6:16 PM
Waning Gibbous, 52% visible
SPECI KSEG 210808Z AUTO 00000KT 1 1/2SM BR OVC017 08/08 A3005 RMK AO2 T00830083
Pressure 30.05 in
Visibility 1.5 miles
Clouds Overcast 1700 ft
Windchill 49 °F
Dew Point 49 °F
Humidity 99%
Rainfall 0.00 in
Snow Depth Not available.
7:23 AM 6:16 PM
Waning Gibbous, 52% visible
SPECI KSEG 210808Z AUTO 00000KT 1 1/2SM BR OVC017 08/08 A3005 RMK AO2 T00830083

Get Severe Weather Alerts

Thanks for signing up!

Be on the lookout for a verification email in your inbox.

You'll start receiving the daily forecast at 6 AM.

×

10-Day Weather Forecast

Almanac

Astronomy

Oct. 21, 2019 Rise Set
Actual Time
Civil Twilight
Nautical Twilight
Astronomical Twilight
Moon
Length of Visible Light
Length of Day
Tomorrow will be .
, % of the Moon is Illuminated

Today's Extremes

State Highs State Lows

Community

WunderPhotos

Category 6

Welcome to Category 6. This is the collective home for Weather Underground's featured writeups by Dr. Jeff Masters (right), Bob Henson (left), Chris Burt, and other regular contributors.

Nearby

Air Quality

  Air Quality AQ Index Pollutant
Not available.

Snow Depth

Station Depth Elevation

Earthquake Activity

City Distance Mag. Time & Date
Minimum magnitude displayed is 2.5.

Coastal Water Temperatures

Place Temperature

Stations

Nearby Weather Stations

Station Location Temp. Windchill Dew Point Humidity Wind Precip. Elev Updated Type
                   

Watches & Warnings

There are currently no watches in effect.